sensor_id;sensor_type;location;lat;lon;timestamp;P1;durP1;ratioP1;P2;durP2;ratioP2
41817;SDS011;27493;51.730;5.294;2023-04-25T00:02:00;8.27;;;3.63;;
41817;SDS011;27493;51.730;5.294;2023-04-25T00:04:26;15.07;;;4.07;;
41817;SDS011;27493;51.730;5.294;2023-04-25T00:06:53;10.80;;;4.93;;
41817;SDS011;27493;51.730;5.294;2023-04-25T00:09:18;19.17;;;4.77;;
41817;SDS011;27493;51.730;5.294;2023-04-25T00:11:43;15.57;;;4.37;;
41817;SDS011;27493;51.730;5.294;2023-04-25T00:14:09;12.73;;;4.70;;
41817;SDS011;27493;51.730;5.294;2023-04-25T00:16:34;14.73;;;4.83;;
41817;SDS011;27493;51.730;5.294;2023-04-25T00:19:00;9.90;;;4.27;;
41817;SDS011;27493;51.730;5.294;2023-04-25T00:21:26;12.27;;;4.63;;
41817;SDS011;27493;51.730;5.294;2023-04-25T00:23:55;17.10;;;4.97;;
41817;SDS011;27493;51.730;5.294;2023-04-25T00:26:20;15.87;;;5.00;;
41817;SDS011;27493;51.730;5.294;2023-04-25T00:28:48;13.73;;;4.47;;
41817;SDS011;27493;51.730;5.294;2023-04-25T00:31:14;10.83;;;4.00;;
41817;SDS011;27493;51.730;5.294;2023-04-25T00:33:39;14.37;;;4.63;;
41817;SDS011;27493;51.730;5.294;2023-04-25T00:36:04;12.63;;;4.90;;
41817;SDS011;27493;51.730;5.294;2023-04-25T00:38:30;14.43;;;5.07;;
41817;SDS011;27493;51.730;5.294;2023-04-25T00:40:55;13.07;;;4.60;;
41817;SDS011;27493;51.730;5.294;2023-04-25T00:43:20;15.30;;;4.27;;
41817;SDS011;27493;51.730;5.294;2023-04-25T00:45:46;15.60;;;4.77;;
41817;SDS011;27493;51.730;5.294;2023-04-25T00:48:13;15.77;;;5.17;;
41817;SDS011;27493;51.730;5.294;2023-04-25T00:50:38;15.27;;;4.67;;
41817;SDS011;27493;51.730;5.294;2023-04-25T00:53:03;15.97;;;4.73;;
41817;SDS011;27493;51.730;5.294;2023-04-25T00:55:29;11.63;;;4.80;;
41817;SDS011;27493;51.730;5.294;2023-04-25T00:57:56;11.80;;;4.60;;
41817;SDS011;27493;51.730;5.294;2023-04-25T01:00:21;11.50;;;4.63;;
41817;SDS011;27493;51.730;5.294;2023-04-25T01:02:46;18.83;;;4.87;;
41817;SDS011;27493;51.730;5.294;2023-04-25T01:05:12;15.77;;;5.00;;
41817;SDS011;27493;51.730;5.294;2023-04-25T01:07:37;17.77;;;5.50;;
41817;SDS011;27493;51.730;5.294;2023-04-25T01:10:02;16.57;;;5.47;;
41817;SDS011;27493;51.730;5.294;2023-04-25T01:12:28;20.30;;;5.43;;
41817;SDS011;27493;51.730;5.294;2023-04-25T01:14:54;20.80;;;5.93;;
41817;SDS011;27493;51.730;5.294;2023-04-25T01:17:19;13.10;;;5.47;;
41817;SDS011;27493;51.730;5.294;2023-04-25T01:19:44;15.33;;;5.00;;
41817;SDS011;27493;51.730;5.294;2023-04-25T01:22:12;14.70;;;5.77;;
41817;SDS011;27493;51.730;5.294;2023-04-25T01:24:39;11.53;;;4.73;;
41817;SDS011;27493;51.730;5.294;2023-04-25T01:27:04;15.43;;;5.20;;
41817;SDS011;27493;51.730;5.294;2023-04-25T01:29:29;18.10;;;5.83;;
41817;SDS011;27493;51.730;5.294;2023-04-25T01:31:55;14.67;;;5.40;;
41817;SDS011;27493;51.730;5.294;2023-04-25T01:34:20;15.87;;;5.27;;
41817;SDS011;27493;51.730;5.294;2023-04-25T01:36:47;12.17;;;5.23;;
41817;SDS011;27493;51.730;5.294;2023-04-25T01:39:13;21.23;;;5.77;;
41817;SDS011;27493;51.730;5.294;2023-04-25T01:41:39;13.73;;;5.40;;
41817;SDS011;27493;51.730;5.294;2023-04-25T01:44:04;14.90;;;5.43;;
41817;SDS011;27493;51.730;5.294;2023-04-25T01:46:29;15.53;;;5.60;;
41817;SDS011;27493;51.730;5.294;2023-04-25T01:48:55;16.33;;;5.03;;
41817;SDS011;27493;51.730;5.294;2023-04-25T01:51:20;18.03;;;5.83;;
41817;SDS011;27493;51.730;5.294;2023-04-25T01:53:46;16.53;;;5.63;;
41817;SDS011;27493;51.730;5.294;2023-04-25T01:56:11;15.93;;;5.60;;
41817;SDS011;27493;51.730;5.294;2023-04-25T01:58:36;16.90;;;5.67;;
41817;SDS011;27493;51.730;5.294;2023-04-25T02:01:01;17.60;;;5.33;;
41817;SDS011;27493;51.730;5.294;2023-04-25T02:03:26;14.90;;;5.10;;
41817;SDS011;27493;51.730;5.294;2023-04-25T02:05:51;20.27;;;5.67;;
41817;SDS011;27493;51.730;5.294;2023-04-25T02:08:17;15.57;;;5.63;;
41817;SDS011;27493;51.730;5.294;2023-04-25T02:10:43;19.53;;;5.43;;
41817;SDS011;27493;51.730;5.294;2023-04-25T02:13:08;16.83;;;5.40;;
41817;SDS011;27493;51.730;5.294;2023-04-25T02:15:33;21.33;;;5.83;;
41817;SDS011;27493;51.730;5.294;2023-04-25T02:17:59;18.13;;;5.43;;
41817;SDS011;27493;51.730;5.294;2023-04-25T02:20:25;19.70;;;5.43;;
41817;SDS011;27493;51.730;5.294;2023-04-25T02:22:50;20.60;;;5.70;;
41817;SDS011;27493;51.730;5.294;2023-04-25T02:25:16;17.47;;;5.50;;
41817;SDS011;27493;51.730;5.294;2023-04-25T02:27:42;18.33;;;4.90;;
41817;SDS011;27493;51.730;5.294;2023-04-25T02:30:07;15.07;;;5.30;;
41817;SDS011;27493;51.730;5.294;2023-04-25T02:32:33;24.63;;;5.70;;
41817;SDS011;27493;51.730;5.294;2023-04-25T02:34:59;20.40;;;5.30;;
41817;SDS011;27493;51.730;5.294;2023-04-25T02:37:28;15.90;;;5.27;;
41817;SDS011;27493;51.730;5.294;2023-04-25T02:39:53;16.63;;;6.00;;
41817;SDS011;27493;51.730;5.294;2023-04-25T02:42:19;21.10;;;5.50;;
41817;SDS011;27493;51.730;5.294;2023-04-25T02:44:44;16.20;;;5.70;;
41817;SDS011;27493;51.730;5.294;2023-04-25T02:47:09;15.07;;;5.93;;
41817;SDS011;27493;51.730;5.294;2023-04-25T02:49:34;14.70;;;5.40;;
41817;SDS011;27493;51.730;5.294;2023-04-25T02:51:59;17.63;;;6.10;;
41817;SDS011;27493;51.730;5.294;2023-04-25T02:54:25;22.53;;;7.33;;
41817;SDS011;27493;51.730;5.294;2023-04-25T02:56:50;18.50;;;5.70;;
41817;SDS011;27493;51.730;5.294;2023-04-25T02:59:15;26.00;;;6.30;;
41817;SDS011;27493;51.730;5.294;2023-04-25T03:01:41;17.70;;;5.47;;
41817;SDS011;27493;51.730;5.294;2023-04-25T03:04:06;15.27;;;5.53;;
41817;SDS011;27493;51.730;5.294;2023-04-25T03:06:31;17.50;;;5.20;;
41817;SDS011;27493;51.730;5.294;2023-04-25T03:08:56;13.27;;;4.80;;
41817;SDS011;27493;51.730;5.294;2023-04-25T03:11:23;15.97;;;5.27;;
41817;SDS011;27493;51.730;5.294;2023-04-25T03:13:48;16.67;;;5.70;;
41817;SDS011;27493;51.730;5.294;2023-04-25T03:16:13;14.17;;;5.13;;
41817;SDS011;27493;51.730;5.294;2023-04-25T03:18:39;17.40;;;5.50;;
41817;SDS011;27493;51.730;5.294;2023-04-25T03:21:04;15.47;;;5.20;;
41817;SDS011;27493;51.730;5.294;2023-04-25T03:23:29;18.40;;;5.70;;
41817;SDS011;27493;51.730;5.294;2023-04-25T03:25:55;15.03;;;5.40;;
41817;SDS011;27493;51.730;5.294;2023-04-25T03:28:20;18.83;;;6.03;;
41817;SDS011;27493;51.730;5.294;2023-04-25T03:30:45;16.53;;;5.77;;
41817;SDS011;27493;51.730;5.294;2023-04-25T03:33:10;16.93;;;5.33;;
41817;SDS011;27493;51.730;5.294;2023-04-25T03:35:36;15.00;;;5.50;;
41817;SDS011;27493;51.730;5.294;2023-04-25T03:38:01;14.40;;;4.90;;
41817;SDS011;27493;51.730;5.294;2023-04-25T03:40:26;16.87;;;5.73;;
41817;SDS011;27493;51.730;5.294;2023-04-25T03:42:51;18.43;;;5.30;;
41817;SDS011;27493;51.730;5.294;2023-04-25T03:45:16;26.83;;;6.90;;
41817;SDS011;27493;51.730;5.294;2023-04-25T03:47:42;18.37;;;5.47;;
41817;SDS011;27493;51.730;5.294;2023-04-25T03:50:07;18.20;;;5.83;;
41817;SDS011;27493;51.730;5.294;2023-04-25T03:52:32;18.00;;;5.30;;
41817;SDS011;27493;51.730;5.294;2023-04-25T03:54:57;18.40;;;5.37;;
41817;SDS011;27493;51.730;5.294;2023-04-25T03:57:23;17.17;;;5.17;;
41817;SDS011;27493;51.730;5.294;2023-04-25T03:59:48;14.97;;;5.57;;
41817;SDS011;27493;51.730;5.294;2023-04-25T04:02:13;14.70;;;5.90;;
41817;SDS011;27493;51.730;5.294;2023-04-25T04:04:38;16.20;;;5.17;;
41817;SDS011;27493;51.730;5.294;2023-04-25T04:07:03;14.40;;;4.90;;
41817;SDS011;27493;51.730;5.294;2023-04-25T04:09:28;18.10;;;5.33;;
41817;SDS011;27493;51.730;5.294;2023-04-25T04:11:54;18.10;;;5.23;;
41817;SDS011;27493;51.730;5.294;2023-04-25T04:14:19;15.53;;;5.00;;
41817;SDS011;27493;51.730;5.294;2023-04-25T04:16:44;13.67;;;4.87;;
41817;SDS011;27493;51.730;5.294;2023-04-25T04:19:09;16.10;;;4.57;;
41817;SDS011;27493;51.730;5.294;2023-04-25T04:21:35;14.70;;;4.67;;
41817;SDS011;27493;51.730;5.294;2023-04-25T04:24:00;13.77;;;4.60;;
41817;SDS011;27493;51.730;5.294;2023-04-25T04:26:25;15.03;;;5.27;;
41817;SDS011;27493;51.730;5.294;2023-04-25T04:28:51;11.47;;;4.53;;
41817;SDS011;27493;51.730;5.294;2023-04-25T04:31:16;14.43;;;4.47;;
41817;SDS011;27493;51.730;5.294;2023-04-25T04:33:44;16.40;;;4.27;;
41817;SDS011;27493;51.730;5.294;2023-04-25T04:36:09;14.47;;;4.43;;
41817;SDS011;27493;51.730;5.294;2023-04-25T04:38:34;11.07;;;4.63;;
41817;SDS011;27493;51.730;5.294;2023-04-25T04:41:01;12.03;;;4.13;;
41817;SDS011;27493;51.730;5.294;2023-04-25T04:43:27;16.67;;;3.83;;
41817;SDS011;27493;51.730;5.294;2023-04-25T04:45:53;13.33;;;4.40;;
41817;SDS011;27493;51.730;5.294;2023-04-25T04:48:21;18.50;;;4.53;;
41817;SDS011;27493;51.730;5.294;2023-04-25T04:50:46;12.13;;;4.50;;
41817;SDS011;27493;51.730;5.294;2023-04-25T04:53:12;11.73;;;4.63;;
41817;SDS011;27493;51.730;5.294;2023-04-25T04:55:37;15.37;;;4.27;;
41817;SDS011;27493;51.730;5.294;2023-04-25T04:58:02;19.30;;;5.40;;
41817;SDS011;27493;51.730;5.294;2023-04-25T05:00:28;11.70;;;4.07;;
41817;SDS011;27493;51.730;5.294;2023-04-25T05:02:54;11.43;;;5.10;;
41817;SDS011;27493;51.730;5.294;2023-04-25T05:05:19;17.83;;;4.60;;
41817;SDS011;27493;51.730;5.294;2023-04-25T05:07:44;16.80;;;4.90;;
41817;SDS011;27493;51.730;5.294;2023-04-25T05:10:09;10.43;;;4.23;;
41817;SDS011;27493;51.730;5.294;2023-04-25T05:12:35;13.90;;;4.40;;
41817;SDS011;27493;51.730;5.294;2023-04-25T05:15:00;13.17;;;5.10;;
41817;SDS011;27493;51.730;5.294;2023-04-25T05:17:25;14.57;;;5.13;;
41817;SDS011;27493;51.730;5.294;2023-04-25T05:19:51;13.57;;;4.20;;
41817;SDS011;27493;51.730;5.294;2023-04-25T05:22:16;12.07;;;4.33;;
41817;SDS011;27493;51.730;5.294;2023-04-25T05:24:41;20.53;;;5.43;;
41817;SDS011;27493;51.730;5.294;2023-04-25T05:27:06;13.10;;;4.13;;
41817;SDS011;27493;51.730;5.294;2023-04-25T05:29:31;12.87;;;4.63;;
41817;SDS011;27493;51.730;5.294;2023-04-25T05:31:56;13.17;;;4.43;;
41817;SDS011;27493;51.730;5.294;2023-04-25T05:34:22;10.23;;;4.00;;
41817;SDS011;27493;51.730;5.294;2023-04-25T05:36:47;12.83;;;4.70;;
41817;SDS011;27493;51.730;5.294;2023-04-25T05:39:14;9.80;;;3.93;;
41817;SDS011;27493;51.730;5.294;2023-04-25T05:41:39;13.57;;;3.83;;
41817;SDS011;27493;51.730;5.294;2023-04-25T05:44:04;9.73;;;4.10;;
41817;SDS011;27493;51.730;5.294;2023-04-25T05:46:30;14.63;;;4.03;;
41817;SDS011;27493;51.730;5.294;2023-04-25T05:48:55;15.63;;;4.23;;
41817;SDS011;27493;51.730;5.294;2023-04-25T05:51:20;12.70;;;4.17;;
41817;SDS011;27493;51.730;5.294;2023-04-25T05:53:46;9.07;;;3.53;;
41817;SDS011;27493;51.730;5.294;2023-04-25T05:56:11;19.13;;;4.40;;
41817;SDS011;27493;51.730;5.294;2023-04-25T05:58:36;9.60;;;3.50;;
41817;SDS011;27493;51.730;5.294;2023-04-25T06:01:01;12.73;;;3.80;;
41817;SDS011;27493;51.730;5.294;2023-04-25T06:03:27;17.67;;;3.60;;
41817;SDS011;27493;51.730;5.294;2023-04-25T06:05:52;11.53;;;4.10;;
41817;SDS011;27493;51.730;5.294;2023-04-25T06:08:17;6.73;;;3.50;;
41817;SDS011;27493;51.730;5.294;2023-04-25T06:10:43;9.73;;;3.73;;
41817;SDS011;27493;51.730;5.294;2023-04-25T06:13:08;12.03;;;4.07;;
41817;SDS011;27493;51.730;5.294;2023-04-25T06:15:33;14.60;;;3.60;;
41817;SDS011;27493;51.730;5.294;2023-04-25T06:17:58;11.63;;;3.70;;
41817;SDS011;27493;51.730;5.294;2023-04-25T06:20:23;11.23;;;4.00;;
41817;SDS011;27493;51.730;5.294;2023-04-25T06:22:49;9.60;;;3.37;;
41817;SDS011;27493;51.730;5.294;2023-04-25T06:25:15;9.83;;;3.37;;
41817;SDS011;27493;51.730;5.294;2023-04-25T06:27:40;11.53;;;3.40;;
41817;SDS011;27493;51.730;5.294;2023-04-25T06:30:05;8.90;;;3.37;;
41817;SDS011;27493;51.730;5.294;2023-04-25T06:32:31;10.57;;;3.20;;
41817;SDS011;27493;51.730;5.294;2023-04-25T06:34:56;6.93;;;2.70;;
41817;SDS011;27493;51.730;5.294;2023-04-25T06:37:21;6.50;;;2.83;;
41817;SDS011;27493;51.730;5.294;2023-04-25T06:39:46;8.50;;;3.20;;
41817;SDS011;27493;51.730;5.294;2023-04-25T06:42:12;6.70;;;2.90;;
41817;SDS011;27493;51.730;5.294;2023-04-25T06:44:37;10.63;;;2.70;;
41817;SDS011;27493;51.730;5.294;2023-04-25T06:47:02;8.57;;;2.97;;
41817;SDS011;27493;51.730;5.294;2023-04-25T06:49:27;8.40;;;3.10;;
41817;SDS011;27493;51.730;5.294;2023-04-25T06:51:53;7.73;;;3.10;;
41817;SDS011;27493;51.730;5.294;2023-04-25T06:54:18;8.30;;;2.80;;
41817;SDS011;27493;51.730;5.294;2023-04-25T06:56:43;8.67;;;3.07;;
41817;SDS011;27493;51.730;5.294;2023-04-25T06:59:08;7.33;;;2.87;;
41817;SDS011;27493;51.730;5.294;2023-04-25T07:01:34;9.97;;;2.87;;
41817;SDS011;27493;51.730;5.294;2023-04-25T07:04:00;7.50;;;2.90;;
41817;SDS011;27493;51.730;5.294;2023-04-25T07:06:25;9.90;;;2.83;;
41817;SDS011;27493;51.730;5.294;2023-04-25T07:08:51;9.63;;;2.60;;
41817;SDS011;27493;51.730;5.294;2023-04-25T07:11:17;9.83;;;2.87;;
41817;SDS011;27493;51.730;5.294;2023-04-25T07:13:42;6.73;;;2.10;;
41817;SDS011;27493;51.730;5.294;2023-04-25T07:16:07;10.23;;;3.17;;
41817;SDS011;27493;51.730;5.294;2023-04-25T07:18:32;7.33;;;2.77;;
41817;SDS011;27493;51.730;5.294;2023-04-25T07:20:57;8.70;;;3.20;;
41817;SDS011;27493;51.730;5.294;2023-04-25T07:23:22;8.83;;;3.17;;
41817;SDS011;27493;51.730;5.294;2023-04-25T07:25:48;5.77;;;2.53;;
41817;SDS011;27493;51.730;5.294;2023-04-25T07:28:13;9.30;;;2.70;;
41817;SDS011;27493;51.730;5.294;2023-04-25T07:30:38;7.47;;;2.63;;
41817;SDS011;27493;51.730;5.294;2023-04-25T07:33:03;9.03;;;2.80;;
41817;SDS011;27493;51.730;5.294;2023-04-25T07:35:29;9.03;;;3.07;;
41817;SDS011;27493;51.730;5.294;2023-04-25T07:37:54;7.67;;;3.10;;
41817;SDS011;27493;51.730;5.294;2023-04-25T07:40:20;6.70;;;2.87;;
41817;SDS011;27493;51.730;5.294;2023-04-25T07:42:45;8.23;;;2.70;;
41817;SDS011;27493;51.730;5.294;2023-04-25T07:45:10;12.27;;;3.20;;
41817;SDS011;27493;51.730;5.294;2023-04-25T07:47:35;9.53;;;3.00;;
41817;SDS011;27493;51.730;5.294;2023-04-25T07:50:01;8.17;;;3.23;;
41817;SDS011;27493;51.730;5.294;2023-04-25T07:52:26;11.30;;;2.30;;
41817;SDS011;27493;51.730;5.294;2023-04-25T07:54:51;8.20;;;2.30;;
41817;SDS011;27493;51.730;5.294;2023-04-25T07:57:17;11.20;;;2.60;;
41817;SDS011;27493;51.730;5.294;2023-04-25T07:59:43;7.73;;;2.47;;
41817;SDS011;27493;51.730;5.294;2023-04-25T08:02:08;12.90;;;2.80;;
41817;SDS011;27493;51.730;5.294;2023-04-25T08:04:33;7.80;;;2.27;;
41817;SDS011;27493;51.730;5.294;2023-04-25T08:06:59;8.47;;;2.90;;
41817;SDS011;27493;51.730;5.294;2023-04-25T08:09:24;11.07;;;2.60;;
41817;SDS011;27493;51.730;5.294;2023-04-25T08:11:49;6.43;;;2.40;;
41817;SDS011;27493;51.730;5.294;2023-04-25T08:14:15;8.87;;;2.50;;
41817;SDS011;27493;51.730;5.294;2023-04-25T08:16:40;9.17;;;2.40;;
41817;SDS011;27493;51.730;5.294;2023-04-25T08:19:05;11.63;;;2.60;;
41817;SDS011;27493;51.730;5.294;2023-04-25T08:21:31;7.47;;;2.50;;
41817;SDS011;27493;51.730;5.294;2023-04-25T08:23:56;16.23;;;3.07;;
41817;SDS011;27493;51.730;5.294;2023-04-25T08:26:22;7.37;;;2.50;;
41817;SDS011;27493;51.730;5.294;2023-04-25T08:28:48;6.67;;;2.00;;
41817;SDS011;27493;51.730;5.294;2023-04-25T08:31:13;11.50;;;2.57;;
41817;SDS011;27493;51.730;5.294;2023-04-25T08:33:38;9.17;;;2.10;;
41817;SDS011;27493;51.730;5.294;2023-04-25T08:36:03;11.73;;;2.17;;
41817;SDS011;27493;51.730;5.294;2023-04-25T08:38:29;7.33;;;2.10;;
41817;SDS011;27493;51.730;5.294;2023-04-25T08:40:54;5.80;;;2.20;;
41817;SDS011;27493;51.730;5.294;2023-04-25T08:43:20;11.00;;;2.27;;
41817;SDS011;27493;51.730;5.294;2023-04-25T08:45:45;4.83;;;1.87;;
41817;SDS011;27493;51.730;5.294;2023-04-25T08:48:12;9.93;;;2.50;;
41817;SDS011;27493;51.730;5.294;2023-04-25T08:50:50;7.50;;;2.23;;
41817;SDS011;27493;51.730;5.294;2023-04-25T08:53:16;7.37;;;2.27;;
41817;SDS011;27493;51.730;5.294;2023-04-25T08:55:44;7.47;;;2.37;;
41817;SDS011;27493;51.730;5.294;2023-04-25T08:58:10;9.10;;;2.70;;
41817;SDS011;27493;51.730;5.294;2023-04-25T09:00:35;6.07;;;2.57;;
41817;SDS011;27493;51.730;5.294;2023-04-25T09:03:01;7.13;;;2.80;;
41817;SDS011;27493;51.730;5.294;2023-04-25T09:05:26;9.97;;;2.23;;
41817;SDS011;27493;51.730;5.294;2023-04-25T09:07:53;9.93;;;2.10;;
41817;SDS011;27493;51.730;5.294;2023-04-25T09:10:18;7.57;;;2.17;;
41817;SDS011;27493;51.730;5.294;2023-04-25T09:12:43;7.17;;;2.00;;
41817;SDS011;27493;51.730;5.294;2023-04-25T09:15:10;7.17;;;2.00;;
41817;SDS011;27493;51.730;5.294;2023-04-25T09:17:35;7.27;;;1.60;;
41817;SDS011;27493;51.730;5.294;2023-04-25T09:20:14;3.77;;;1.43;;
41817;SDS011;27493;51.730;5.294;2023-04-25T09:22:40;6.67;;;1.87;;
41817;SDS011;27493;51.730;5.294;2023-04-25T09:25:09;6.67;;;2.20;;
41817;SDS011;27493;51.730;5.294;2023-04-25T09:27:34;6.57;;;2.00;;
41817;SDS011;27493;51.730;5.294;2023-04-25T09:30:00;5.57;;;1.93;;
41817;SDS011;27493;51.730;5.294;2023-04-25T09:32:26;5.77;;;1.57;;
41817;SDS011;27493;51.730;5.294;2023-04-25T09:34:52;4.63;;;1.80;;
41817;SDS011;27493;51.730;5.294;2023-04-25T09:37:24;5.30;;;1.60;;
41817;SDS011;27493;51.730;5.294;2023-04-25T09:39:51;6.80;;;1.93;;
41817;SDS011;27493;51.730;5.294;2023-04-25T09:42:16;5.90;;;1.77;;
41817;SDS011;27493;51.730;5.294;2023-04-25T09:44:45;3.53;;;1.90;;
41817;SDS011;27493;51.730;5.294;2023-04-25T09:47:11;5.53;;;2.10;;
41817;SDS011;27493;51.730;5.294;2023-04-25T09:49:38;4.40;;;1.70;;
41817;SDS011;27493;51.730;5.294;2023-04-25T09:52:04;6.87;;;2.13;;
41817;SDS011;27493;51.730;5.294;2023-04-25T09:54:29;8.17;;;2.30;;
41817;SDS011;27493;51.730;5.294;2023-04-25T09:56:54;4.87;;;2.03;;
41817;SDS011;27493;51.730;5.294;2023-04-25T09:59:20;6.83;;;2.27;;
41817;SDS011;27493;51.730;5.294;2023-04-25T10:01:46;8.27;;;2.37;;
41817;SDS011;27493;51.730;5.294;2023-04-25T10:04:12;7.30;;;1.93;;
41817;SDS011;27493;51.730;5.294;2023-04-25T10:06:40;7.77;;;2.13;;
41817;SDS011;27493;51.730;5.294;2023-04-25T10:09:07;6.93;;;2.03;;
41817;SDS011;27493;51.730;5.294;2023-04-25T10:11:33;8.37;;;1.73;;
41817;SDS011;27493;51.730;5.294;2023-04-25T10:13:59;5.90;;;1.90;;
41817;SDS011;27493;51.730;5.294;2023-04-25T10:16:25;6.00;;;1.77;;
41817;SDS011;27493;51.730;5.294;2023-04-25T10:18:50;4.47;;;1.67;;
41817;SDS011;27493;51.730;5.294;2023-04-25T10:21:15;6.17;;;1.60;;
41817;SDS011;27493;51.730;5.294;2023-04-25T10:23:41;7.87;;;1.77;;
41817;SDS011;27493;51.730;5.294;2023-04-25T10:26:07;3.73;;;1.70;;
41817;SDS011;27493;51.730;5.294;2023-04-25T10:31:32;5.80;;;1.60;;
41817;SDS011;27493;51.730;5.294;2023-04-25T10:33:58;2.63;;;1.13;;
41817;SDS011;27493;51.730;5.294;2023-04-25T10:36:24;4.97;;;1.30;;
41817;SDS011;27493;51.730;5.294;2023-04-25T10:38:52;1.60;;;1.10;;
41817;SDS011;27493;51.730;5.294;2023-04-25T10:41:18;2.57;;;1.47;;
41817;SDS011;27493;51.730;5.294;2023-04-25T10:43:47;2.23;;;1.30;;
41817;SDS011;27493;51.730;5.294;2023-04-25T10:48:37;5.65;;;1.80;;
41817;SDS011;27493;51.730;5.294;2023-04-25T10:51:09;3.33;;;1.40;;
41817;SDS011;27493;51.730;5.294;2023-04-25T10:53:34;7.03;;;1.70;;
41817;SDS011;27493;51.730;5.294;2023-04-25T10:55:59;5.67;;;1.83;;
41817;SDS011;27493;51.730;5.294;2023-04-25T10:58:25;7.27;;;2.00;;
41817;SDS011;27493;51.730;5.294;2023-04-25T11:00:50;4.10;;;1.70;;
41817;SDS011;27493;51.730;5.294;2023-04-25T11:03:16;3.63;;;1.70;;
41817;SDS011;27493;51.730;5.294;2023-04-25T11:05:41;7.87;;;2.63;;
41817;SDS011;27493;51.730;5.294;2023-04-25T11:08:11;8.40;;;2.13;;
41817;SDS011;27493;51.730;5.294;2023-04-25T11:10:39;5.53;;;1.90;;
41817;SDS011;27493;51.730;5.294;2023-04-25T11:13:04;4.90;;;1.87;;
41817;SDS011;27493;51.730;5.294;2023-04-25T11:15:30;6.73;;;1.67;;
41817;SDS011;27493;51.730;5.294;2023-04-25T11:17:55;4.67;;;1.90;;
41817;SDS011;27493;51.730;5.294;2023-04-25T11:20:21;3.90;;;1.53;;
41817;SDS011;27493;51.730;5.294;2023-04-25T11:22:46;4.67;;;1.50;;
41817;SDS011;27493;51.730;5.294;2023-04-25T11:25:13;3.17;;;1.40;;
41817;SDS011;27493;51.730;5.294;2023-04-25T11:28:00;3.13;;;1.40;;
41817;SDS011;27493;51.730;5.294;2023-04-25T11:30:25;3.63;;;1.37;;
41817;SDS011;27493;51.730;5.294;2023-04-25T11:32:51;3.93;;;1.30;;
41817;SDS011;27493;51.730;5.294;2023-04-25T11:35:18;3.03;;;1.40;;
41817;SDS011;27493;51.730;5.294;2023-04-25T11:37:44;4.23;;;1.70;;
41817;SDS011;27493;51.730;5.294;2023-04-25T11:40:10;5.60;;;1.40;;
41817;SDS011;27493;51.730;5.294;2023-04-25T11:42:36;2.70;;;1.40;;
41817;SDS011;27493;51.730;5.294;2023-04-25T11:45:02;2.80;;;1.33;;
41817;SDS011;27493;51.730;5.294;2023-04-25T11:47:29;2.70;;;1.50;;
41817;SDS011;27493;51.730;5.294;2023-04-25T11:49:55;2.50;;;1.20;;
41817;SDS011;27493;51.730;5.294;2023-04-25T11:52:20;4.60;;;1.67;;
41817;SDS011;27493;51.730;5.294;2023-04-25T11:54:45;3.17;;;1.40;;
41817;SDS011;27493;51.730;5.294;2023-04-25T11:57:11;3.20;;;1.43;;
41817;SDS011;27493;51.730;5.294;2023-04-25T11:59:36;4.57;;;1.50;;
41817;SDS011;27493;51.730;5.294;2023-04-25T12:02:01;2.77;;;1.43;;
41817;SDS011;27493;51.730;5.294;2023-04-25T12:04:29;2.23;;;1.30;;
41817;SDS011;27493;51.730;5.294;2023-04-25T12:06:55;3.27;;;1.53;;
41817;SDS011;27493;51.730;5.294;2023-04-25T12:09:21;4.50;;;1.40;;
41817;SDS011;27493;51.730;5.294;2023-04-25T12:11:55;6.00;;;1.93;;
41817;SDS011;27493;51.730;5.294;2023-04-25T12:14:21;5.90;;;1.80;;
41817;SDS011;27493;51.730;5.294;2023-04-25T12:16:48;7.30;;;2.07;;
41817;SDS011;27493;51.730;5.294;2023-04-25T12:19:17;6.10;;;1.73;;
41817;SDS011;27493;51.730;5.294;2023-04-25T12:21:43;4.43;;;1.70;;
41817;SDS011;27493;51.730;5.294;2023-04-25T12:29:33;4.03;;;1.43;;
41817;SDS011;27493;51.730;5.294;2023-04-25T12:31:58;2.23;;;1.30;;
41817;SDS011;27493;51.730;5.294;2023-04-25T12:34:24;5.70;;;1.43;;
41817;SDS011;27493;51.730;5.294;2023-04-25T12:36:50;3.27;;;1.50;;
41817;SDS011;27493;51.730;5.294;2023-04-25T12:39:16;5.80;;;1.53;;
41817;SDS011;27493;51.730;5.294;2023-04-25T12:41:41;4.50;;;1.40;;
41817;SDS011;27493;51.730;5.294;2023-04-25T12:44:07;5.13;;;1.50;;
41817;SDS011;27493;51.730;5.294;2023-04-25T12:46:32;3.20;;;1.90;;
41817;SDS011;27493;51.730;5.294;2023-04-25T12:48:57;6.20;;;1.80;;
41817;SDS011;27493;51.730;5.294;2023-04-25T12:51:22;7.27;;;1.77;;
41817;SDS011;27493;51.730;5.294;2023-04-25T12:53:50;5.77;;;1.77;;
41817;SDS011;27493;51.730;5.294;2023-04-25T12:56:15;3.97;;;1.80;;
41817;SDS011;27493;51.730;5.294;2023-04-25T12:58:40;5.90;;;1.60;;
41817;SDS011;27493;51.730;5.294;2023-04-25T13:01:06;6.10;;;1.73;;
41817;SDS011;27493;51.730;5.294;2023-04-25T13:03:32;6.07;;;1.87;;
41817;SDS011;27493;51.730;5.294;2023-04-25T13:05:57;4.03;;;1.70;;
41817;SDS011;27493;51.730;5.294;2023-04-25T13:08:22;4.63;;;1.67;;
41817;SDS011;27493;51.730;5.294;2023-04-25T13:10:48;4.00;;;1.67;;
41817;SDS011;27493;51.730;5.294;2023-04-25T13:13:13;7.90;;;1.87;;
41817;SDS011;27493;51.730;5.294;2023-04-25T13:15:38;5.87;;;1.90;;
41817;SDS011;27493;51.730;5.294;2023-04-25T13:18:03;4.23;;;1.83;;
41817;SDS011;27493;51.730;5.294;2023-04-25T13:20:30;3.70;;;1.57;;
41817;SDS011;27493;51.730;5.294;2023-04-25T13:22:55;6.03;;;1.60;;
41817;SDS011;27493;51.730;5.294;2023-04-25T13:25:20;3.13;;;1.70;;
41817;SDS011;27493;51.730;5.294;2023-04-25T13:27:46;3.20;;;1.77;;
41817;SDS011;27493;51.730;5.294;2023-04-25T13:30:12;6.20;;;2.10;;
41817;SDS011;27493;51.730;5.294;2023-04-25T13:32:37;4.50;;;1.80;;
41817;SDS011;27493;51.730;5.294;2023-04-25T13:35:03;6.03;;;1.93;;
41817;SDS011;27493;51.730;5.294;2023-04-25T13:37:28;4.50;;;1.93;;
41817;SDS011;27493;51.730;5.294;2023-04-25T13:39:55;5.20;;;1.70;;
41817;SDS011;27493;51.730;5.294;2023-04-25T13:42:21;6.60;;;1.80;;
41817;SDS011;27493;51.730;5.294;2023-04-25T13:44:46;9.33;;;2.00;;
41817;SDS011;27493;51.730;5.294;2023-04-25T13:47:11;3.43;;;1.70;;
41817;SDS011;27493;51.730;5.294;2023-04-25T13:49:37;4.33;;;1.73;;
41817;SDS011;27493;51.730;5.294;2023-04-25T13:52:02;9.83;;;1.93;;
41817;SDS011;27493;51.730;5.294;2023-04-25T13:54:27;7.23;;;2.07;;
41817;SDS011;27493;51.730;5.294;2023-04-25T13:56:52;5.60;;;1.90;;
41817;SDS011;27493;51.730;5.294;2023-04-25T13:59:20;4.80;;;1.80;;
41817;SDS011;27493;51.730;5.294;2023-04-25T14:01:45;6.23;;;2.10;;
41817;SDS011;27493;51.730;5.294;2023-04-25T14:04:11;8.47;;;2.40;;
41817;SDS011;27493;51.730;5.294;2023-04-25T14:06:36;4.47;;;1.77;;
41817;SDS011;27493;51.730;5.294;2023-04-25T14:09:01;3.20;;;1.57;;
41817;SDS011;27493;51.730;5.294;2023-04-25T14:11:28;4.60;;;1.60;;
41817;SDS011;27493;51.730;5.294;2023-04-25T14:13:53;4.57;;;2.13;;
41817;SDS011;27493;51.730;5.294;2023-04-25T14:16:18;7.27;;;1.87;;
41817;SDS011;27493;51.730;5.294;2023-04-25T14:18:44;4.83;;;1.70;;
41817;SDS011;27493;51.730;5.294;2023-04-25T14:21:09;4.57;;;1.70;;
41817;SDS011;27493;51.730;5.294;2023-04-25T14:23:35;6.93;;;1.70;;
41817;SDS011;27493;51.730;5.294;2023-04-25T14:26:00;5.57;;;1.70;;
41817;SDS011;27493;51.730;5.294;2023-04-25T14:28:25;6.17;;;1.60;;
41817;SDS011;27493;51.730;5.294;2023-04-25T14:30:50;2.90;;;1.50;;
41817;SDS011;27493;51.730;5.294;2023-04-25T14:33:15;5.77;;;1.60;;
41817;SDS011;27493;51.730;5.294;2023-04-25T14:35:40;3.53;;;1.50;;
41817;SDS011;27493;51.730;5.294;2023-04-25T14:38:06;7.40;;;1.93;;
41817;SDS011;27493;51.730;5.294;2023-04-25T14:40:32;4.60;;;1.60;;
41817;SDS011;27493;51.730;5.294;2023-04-25T14:42:57;4.03;;;1.70;;